createdAt,value
2017-07-30T00:00:28.131Z,1007.95
2017-07-30T00:01:37.136Z,1007.95
2017-07-30T00:02:46.129Z,1007.91
2017-07-30T00:03:55.097Z,1007.91
2017-07-30T00:05:04.108Z,1007.91
2017-07-30T00:06:13.077Z,1007.87
2017-07-30T00:07:22.038Z,1007.84
2017-07-30T00:08:30.997Z,1007.83
2017-07-30T00:09:39.952Z,1007.81
2017-07-30T00:10:49.262Z,1007.82
2017-07-30T00:11:58.227Z,1007.79
2017-07-30T00:13:07.344Z,1007.77
2017-07-30T00:14:16.354Z,1007.76
2017-07-30T00:15:25.544Z,1007.77
2017-07-30T00:16:34.742Z,1007.75
2017-07-30T00:17:44.097Z,1007.71
2017-07-30T00:18:53.082Z,1007.71
2017-07-30T00:20:02.038Z,1007.66
2017-07-30T00:21:11.000Z,1007.7
2017-07-30T00:22:19.952Z,1007.73
2017-07-30T00:23:28.911Z,1007.73
2017-07-30T00:24:37.984Z,1007.72
2017-07-30T00:25:47.014Z,1007.76
2017-07-30T00:26:56.296Z,1007.75
2017-07-30T00:28:05.248Z,1007.75
2017-07-30T00:29:14.214Z,1007.73
2017-07-30T00:30:23.172Z,1007.69
2017-07-30T00:31:32.273Z,1007.69
2017-07-30T00:32:41.230Z,1007.68
2017-07-30T00:33:50.323Z,1007.71
2017-07-30T00:34:59.395Z,1007.74
2017-07-30T00:36:08.379Z,1007.72
2017-07-30T00:37:17.395Z,1007.68
2017-07-30T00:38:26.675Z,1007.67
2017-07-30T00:39:35.632Z,1007.67
2017-07-30T00:40:44.705Z,1007.66
2017-07-30T00:41:53.709Z,1007.65
2017-07-30T00:43:02.667Z,1007.6
2017-07-30T00:44:11.951Z,1007.58
2017-07-30T00:45:20.909Z,1007.55
2017-07-30T00:46:29.866Z,1007.53
2017-07-30T00:47:38.822Z,1007.52
2017-07-30T00:48:47.781Z,1007.49
2017-07-30T00:49:56.747Z,1007.46
2017-07-30T00:51:05.713Z,1007.41
2017-07-30T00:52:14.751Z,1007.41
2017-07-30T00:53:24.042Z,1007.37
2017-07-30T00:54:32.997Z,1007.32
2017-07-30T00:55:41.994Z,1007.32
2017-07-30T00:56:51.375Z,1007.34
2017-07-30T00:58:00.906Z,1007.31
2017-07-30T00:59:09.968Z,1007.36
2017-07-30T01:00:19.028Z,1007.37
2017-07-30T01:01:28.185Z,1007.38
2017-07-30T01:02:37.184Z,1007.36
2017-07-30T01:03:46.142Z,1007.4
2017-07-30T01:04:55.658Z,1007.43
2017-07-30T01:06:04.716Z,1007.45
2017-07-30T01:07:13.749Z,1007.48
2017-07-30T01:08:22.823Z,1007.48
2017-07-30T01:09:31.944Z,1007.48
2017-07-30T01:10:40.951Z,1007.48
2017-07-30T01:11:50.071Z,1007.49
2017-07-30T01:12:59.120Z,1007.51
2017-07-30T01:14:08.280Z,1007.51
2017-07-30T01:15:17.257Z,1007.45
2017-07-30T01:16:26.308Z,1007.47
2017-07-30T01:17:35.276Z,1007.47
2017-07-30T01:18:44.491Z,1007.5
2017-07-30T01:19:53.490Z,1007.46
2017-07-30T01:21:02.572Z,1007.47
2017-07-30T01:22:11.627Z,1007.48
2017-07-30T01:23:20.695Z,1007.47
2017-07-30T01:24:30.112Z,1007.43
2017-07-30T01:25:39.690Z,1007.44
2017-07-30T01:26:48.794Z,1007.43
2017-07-30T01:27:58.134Z,1007.46
2017-07-30T01:29:07.103Z,1007.46
2017-07-30T01:30:16.383Z,1007.44
2017-07-30T01:31:25.342Z,1007.45
2017-07-30T01:32:34.300Z,1007.43
2017-07-30T01:33:43.252Z,1007.38
2017-07-30T01:34:52.588Z,1007.37
2017-07-30T01:36:01.545Z,1007.39
2017-07-30T01:37:10.505Z,1007.39
2017-07-30T01:38:19.472Z,1007.35
2017-07-30T01:39:28.768Z,1007.32
2017-07-30T01:40:37.720Z,1007.28
2017-07-30T01:41:46.670Z,1007.23
2017-07-30T01:42:55.633Z,1007.2
2017-07-30T01:44:04.595Z,1007.18
2017-07-30T01:45:13.558Z,1007.17
2017-07-30T01:46:22.511Z,1007.17
2017-07-30T01:47:31.482Z,1007.13
2017-07-30T01:48:40.444Z,1007.16
2017-07-30T01:49:49.410Z,1007.2
2017-07-30T01:50:58.362Z,1007.16
2017-07-30T01:52:07.314Z,1007.19
2017-07-30T01:53:16.275Z,1007.14
2017-07-30T01:54:25.232Z,1007.11
2017-07-30T01:55:34.179Z,1007.11
2017-07-30T01:56:43.140Z,1007.1
2017-07-30T01:57:52.091Z,1007.12
2017-07-30T01:59:01.374Z,1007.14
2017-07-30T02:00:10.336Z,1007.11
2017-07-30T02:01:19.297Z,1007.1
2017-07-30T02:02:28.900Z,1007.05
2017-07-30T02:03:37.856Z,1006.98
2017-07-30T02:04:46.826Z,1007.01
2017-07-30T02:05:55.790Z,1007.04
2017-07-30T02:07:04.752Z,1007.07
2017-07-30T02:08:13.707Z,1007.01
2017-07-30T02:09:22.677Z,1006.99
2017-07-30T02:10:31.636Z,1006.97
2017-07-30T02:11:40.594Z,1006.95
2017-07-30T02:12:49.553Z,1006.95
2017-07-30T02:13:58.503Z,1006.93
2017-07-30T02:15:07.464Z,1006.96
2017-07-30T02:16:16.421Z,1006.96
2017-07-30T02:17:25.383Z,1006.99
2017-07-30T02:18:34.343Z,1006.96
2017-07-30T02:19:43.305Z,1007.02
2017-07-30T02:20:52.272Z,1006.97
2017-07-30T02:22:01.237Z,1007.04
2017-07-30T02:23:10.191Z,1007.03
2017-07-30T02:24:19.151Z,1007.04
2017-07-30T02:25:28.105Z,1007.04
2017-07-30T02:26:37.067Z,1007.06
2017-07-30T02:27:46.026Z,1007.09
2017-07-30T02:28:54.983Z,1007.09
2017-07-30T02:30:04.263Z,1007.09
2017-07-30T02:31:13.304Z,1007.05
2017-07-30T02:32:22.275Z,1007.03
2017-07-30T02:33:31.225Z,1007.01
2017-07-30T02:34:40.190Z,1007.01
2017-07-30T02:35:49.474Z,1007.01
2017-07-30T02:36:58.428Z,1006.97
2017-07-30T02:38:07.389Z,1006.93
2017-07-30T02:39:16.349Z,1006.92
2017-07-30T02:40:25.626Z,1006.94
2017-07-30T02:41:34.581Z,1006.98
2017-07-30T02:42:43.545Z,1006.96
2017-07-30T02:43:52.517Z,1006.96
2017-07-30T02:45:01.480Z,1006.96
2017-07-30T02:46:10.473Z,1006.97
2017-07-30T02:47:19.435Z,1006.95
2017-07-30T02:48:28.742Z,1006.91
2017-07-30T02:49:37.701Z,1006.9
2017-07-30T02:50:46.980Z,1006.97
2017-07-30T02:51:56.315Z,1006.99
2017-07-30T02:53:05.272Z,1006.95
2017-07-30T02:54:14.229Z,1006.94
2017-07-30T02:55:23.206Z,1006.87
2017-07-30T02:56:32.164Z,1006.92
2017-07-30T02:57:41.125Z,1006.93
2017-07-30T02:58:50.407Z,1006.92
2017-07-30T02:59:59.363Z,1006.85
2017-07-30T03:01:08.322Z,1006.84
2017-07-30T03:02:17.273Z,1006.83
2017-07-30T03:03:26.225Z,1006.81
2017-07-30T03:04:35.180Z,1006.79
2017-07-30T03:05:44.138Z,1006.82
2017-07-30T03:06:53.431Z,1006.81
2017-07-30T03:08:02.388Z,1006.82
2017-07-30T03:09:11.340Z,1006.77
2017-07-30T03:10:20.297Z,1006.73
2017-07-30T03:11:29.253Z,1006.73
2017-07-30T03:12:38.243Z,1006.75
2017-07-30T03:13:47.205Z,1006.75
2017-07-30T03:14:56.193Z,1006.74
2017-07-30T03:16:05.484Z,1006.75
2017-07-30T03:17:14.446Z,1006.72
2017-07-30T03:18:23.403Z,1006.77
2017-07-30T03:19:32.362Z,1006.78
2017-07-30T03:20:41.340Z,1006.75
2017-07-30T03:21:50.310Z,1006.77
2017-07-30T03:22:59.271Z,1006.83
2017-07-30T03:24:08.225Z,1006.83
2017-07-30T03:25:17.178Z,1006.82
2017-07-30T03:26:26.139Z,1006.79
2017-07-30T03:27:35.103Z,1006.81
2017-07-30T03:28:44.069Z,1006.8
2017-07-30T03:29:53.027Z,1006.81
2017-07-30T03:31:01.982Z,1006.74
2017-07-30T03:32:10.949Z,1006.79
2017-07-30T03:33:20.227Z,1006.74
2017-07-30T03:34:29.182Z,1006.73
2017-07-30T03:35:38.131Z,1006.72
2017-07-30T03:36:47.090Z,1006.69
2017-07-30T03:37:56.043Z,1006.66
2017-07-30T03:39:05.005Z,1006.64
2017-07-30T03:40:13.952Z,1006.65
2017-07-30T03:41:22.910Z,1006.66
2017-07-30T03:42:31.875Z,1006.69
2017-07-30T03:43:41.154Z,1006.68
2017-07-30T03:44:50.115Z,1006.67
2017-07-30T03:45:59.078Z,1006.65
2017-07-30T03:47:08.038Z,1006.61
2017-07-30T03:48:16.996Z,1006.57
2017-07-30T03:49:25.955Z,1006.54
2017-07-30T03:50:34.910Z,1006.6
2017-07-30T03:51:43.861Z,1006.56
2017-07-30T03:52:52.816Z,1006.53
2017-07-30T03:54:01.772Z,1006.54
2017-07-30T03:55:10.750Z,1006.51
2017-07-30T03:56:19.704Z,1006.51
2017-07-30T03:57:28.662Z,1006.51
2017-07-30T03:58:37.627Z,1006.55
2017-07-30T03:59:46.583Z,1006.55
2017-07-30T04:00:55.540Z,1006.58
2017-07-30T04:02:04.510Z,1006.56
2017-07-30T04:03:13.475Z,1006.57
2017-07-30T04:04:22.434Z,1006.54
2017-07-30T04:05:31.400Z,1006.56
2017-07-30T04:06:40.353Z,1006.57
2017-07-30T04:07:49.340Z,1006.58
2017-07-30T04:08:58.301Z,1006.61
2017-07-30T04:10:07.284Z,1006.64
2017-07-30T04:11:16.567Z,1006.55
2017-07-30T04:12:25.525Z,1006.58
2017-07-30T04:13:34.481Z,1006.53
2017-07-30T04:14:43.433Z,1006.49
2017-07-30T04:15:52.384Z,1006.53
2017-07-30T04:17:01.343Z,1006.56
2017-07-30T04:18:10.308Z,1006.47
2017-07-30T04:19:19.266Z,1006.51
2017-07-30T04:20:28.537Z,1006.48
2017-07-30T04:21:37.506Z,1006.44
2017-07-30T04:22:46.473Z,1006.4
2017-07-30T04:23:55.442Z,1006.38
2017-07-30T04:25:04.401Z,1006.44
2017-07-30T04:26:13.369Z,1006.36
2017-07-30T04:27:22.366Z,1006.37
2017-07-30T04:28:31.323Z,1006.34
2017-07-30T04:29:40.278Z,1006.37
2017-07-30T04:30:49.244Z,1006.35
2017-07-30T04:31:58.208Z,1006.34
2017-07-30T04:33:07.161Z,1006.36
2017-07-30T04:34:16.118Z,1006.37
2017-07-30T04:35:25.082Z,1006.33
2017-07-30T04:36:34.040Z,1006.36
2017-07-30T04:37:42.995Z,1006.38
2017-07-30T04:38:51.957Z,1006.41
2017-07-30T04:40:00.915Z,1006.41
2017-07-30T04:41:09.882Z,1006.35
2017-07-30T04:42:18.843Z,1006.42
2017-07-30T04:43:27.807Z,1006.33
2017-07-30T04:44:36.772Z,1006.34
2017-07-30T04:45:45.726Z,1006.34
2017-07-30T04:46:54.682Z,1006.3
2017-07-30T04:48:03.641Z,1006.26
2017-07-30T04:49:12.934Z,1006.27
2017-07-30T04:50:22.219Z,1006.22
2017-07-30T04:51:31.165Z,1006.25
2017-07-30T04:52:40.125Z,1006.23
2017-07-30T04:53:49.087Z,1006.21
2017-07-30T04:54:58.045Z,1006.21
2017-07-30T04:56:07.024Z,1006.21
2017-07-30T04:57:15.980Z,1006.22
2017-07-30T04:58:24.942Z,1006.22
2017-07-30T04:59:33.895Z,1006.24
2017-07-30T05:00:42.849Z,1006.22
2017-07-30T05:01:51.802Z,1006.24
2017-07-30T05:03:00.758Z,1006.28
2017-07-30T05:04:09.720Z,1006.27
2017-07-30T05:05:18.680Z,1006.35
2017-07-30T05:06:27.642Z,1006.3
2017-07-30T05:07:36.598Z,1006.36
2017-07-30T05:08:45.554Z,1006.34
2017-07-30T05:09:54.506Z,1006.31
2017-07-30T05:11:03.467Z,1006.29
2017-07-30T05:12:12.423Z,1006.25
2017-07-30T05:13:21.389Z,1006.22
2017-07-30T05:14:30.359Z,1006.26
2017-07-30T05:15:39.640Z,1006.25
2017-07-30T05:16:48.932Z,1006.21
2017-07-30T05:17:57.889Z,1006.22
2017-07-30T05:19:06.846Z,1006.23
2017-07-30T05:20:15.805Z,1006.19
2017-07-30T05:21:25.083Z,1006.25
2017-07-30T05:22:34.038Z,1006.2
2017-07-30T05:23:43.004Z,1006.18
2017-07-30T05:24:51.973Z,1006.23
2017-07-30T05:26:01.254Z,1006.23
2017-07-30T05:27:10.203Z,1006.25
2017-07-30T05:28:19.169Z,1006.28
2017-07-30T05:29:28.121Z,1006.23
2017-07-30T05:30:37.077Z,1006.24
2017-07-30T05:31:46.070Z,1006.23
2017-07-30T05:32:55.029Z,1006.2
2017-07-30T05:34:03.989Z,1006.27
2017-07-30T05:35:13.279Z,1006.28
2017-07-30T05:36:22.247Z,1006.23
2017-07-30T05:37:31.210Z,1006.2
2017-07-30T05:38:40.169Z,1006.19
2017-07-30T05:39:49.147Z,1006.17
2017-07-30T05:40:58.114Z,1006.15
2017-07-30T05:42:07.079Z,1006.13
2017-07-30T05:43:16.038Z,1006.14
2017-07-30T05:44:25.004Z,1006.14
2017-07-30T05:45:33.961Z,1006.11
2017-07-30T05:46:42.922Z,1006.11
2017-07-30T05:47:51.879Z,1006.04
2017-07-30T05:49:00.838Z,1006.05
2017-07-30T05:50:09.800Z,1006.02
2017-07-30T05:51:19.077Z,1006.02
2017-07-30T05:52:28.035Z,1006.02
2017-07-30T05:53:37.000Z,1006.04
2017-07-30T05:54:45.967Z,1006
2017-07-30T05:55:54.926Z,1006
2017-07-30T05:57:03.887Z,1006
2017-07-30T05:58:12.845Z,1006.03
2017-07-30T05:59:21.819Z,1005.97
2017-07-30T06:00:30.799Z,1005.92
2017-07-30T06:01:39.761Z,1005.86
2017-07-30T06:02:48.720Z,1005.85
2017-07-30T06:03:57.685Z,1005.8
2017-07-30T06:05:06.643Z,1005.82
2017-07-30T06:06:15.615Z,1005.8
2017-07-30T06:07:24.566Z,1005.83
2017-07-30T06:08:33.535Z,1005.77
2017-07-30T06:09:42.499Z,1005.81
2017-07-30T06:10:51.458Z,1005.86
2017-07-30T06:12:00.414Z,1005.82
2017-07-30T06:13:09.375Z,1005.83
2017-07-30T06:14:18.328Z,1005.89
2017-07-30T06:15:27.280Z,1005.92
2017-07-30T06:16:36.239Z,1005.9
2017-07-30T06:17:45.195Z,1005.93
2017-07-30T06:18:54.146Z,1005.92
2017-07-30T06:20:03.120Z,1005.91
2017-07-30T06:21:12.396Z,1005.9
2017-07-30T06:22:21.367Z,1005.92
2017-07-30T06:23:30.328Z,1005.94
2017-07-30T06:24:39.306Z,1005.92
2017-07-30T06:25:48.265Z,1005.88
2017-07-30T06:26:57.223Z,1005.9
2017-07-30T06:28:06.193Z,1005.85
2017-07-30T06:29:15.147Z,1005.83
2017-07-30T06:30:24.106Z,1005.82
2017-07-30T06:31:33.059Z,1005.78
2017-07-30T06:32:42.014Z,1005.77
2017-07-30T06:33:50.978Z,1005.75
2017-07-30T06:34:59.926Z,1005.75
2017-07-30T06:36:08.885Z,1005.72
2017-07-30T06:37:17.851Z,1005.73
2017-07-30T06:38:26.805Z,1005.7
2017-07-30T06:39:35.770Z,1005.73
2017-07-30T06:40:44.730Z,1005.63
2017-07-30T06:41:53.687Z,1005.61
2017-07-30T06:43:02.647Z,1005.63
2017-07-30T06:44:11.651Z,1005.63
2017-07-30T06:45:20.611Z,1005.61
2017-07-30T06:46:29.577Z,1005.62
2017-07-30T06:47:38.533Z,1005.63
2017-07-30T06:48:47.493Z,1005.59
2017-07-30T06:49:56.449Z,1005.59
2017-07-30T06:51:05.403Z,1005.57
2017-07-30T06:52:14.376Z,1005.54
2017-07-30T06:53:23.663Z,1005.57
2017-07-30T06:54:32.625Z,1005.54
2017-07-30T06:55:41.605Z,1005.56
2017-07-30T06:56:50.565Z,1005.57
2017-07-30T06:57:59.527Z,1005.59
2017-07-30T06:59:08.491Z,1005.55
2017-07-30T07:00:17.453Z,1005.57
2017-07-30T07:01:26.414Z,1005.53
2017-07-30T07:02:35.378Z,1005.51
2017-07-30T07:03:44.334Z,1005.59
2017-07-30T07:04:53.295Z,1005.6
2017-07-30T07:06:02.279Z,1005.56
2017-07-30T07:07:11.238Z,1005.58
2017-07-30T07:08:20.200Z,1005.52
2017-07-30T07:09:29.155Z,1005.52
2017-07-30T07:10:38.112Z,1005.47
2017-07-30T07:11:47.073Z,1005.5
2017-07-30T07:12:56.045Z,1005.47
2017-07-30T07:14:05.011Z,1005.38
2017-07-30T07:15:13.969Z,1005.43
2017-07-30T07:16:22.938Z,1005.37
2017-07-30T07:17:31.896Z,1005.38
2017-07-30T07:18:40.848Z,1005.36
2017-07-30T07:19:50.117Z,1005.35
2017-07-30T07:20:59.071Z,1005.35
2017-07-30T07:22:08.039Z,1005.36
2017-07-30T07:23:16.998Z,1005.36
2017-07-30T07:24:25.965Z,1005.59
2017-07-30T07:25:34.918Z,1005.42
2017-07-30T07:26:43.901Z,1005.3
2017-07-30T07:27:52.857Z,1005.31
2017-07-30T07:29:01.830Z,1005.27
2017-07-30T07:30:10.789Z,1005.32
2017-07-30T07:31:19.739Z,1005.34
2017-07-30T07:32:28.700Z,1005.29
2017-07-30T07:33:37.651Z,1005.26
2017-07-30T07:34:46.612Z,1005.27
2017-07-30T07:35:55.582Z,1005.26
2017-07-30T07:37:04.552Z,1005.26
2017-07-30T07:38:13.521Z,1005.26
2017-07-30T07:39:22.487Z,1005.21
2017-07-30T07:40:31.442Z,1005.24
2017-07-30T07:41:40.420Z,1005.23
2017-07-30T07:42:49.384Z,1005.25
2017-07-30T07:43:58.359Z,1005.2
2017-07-30T07:45:07.326Z,1005.25
2017-07-30T07:46:16.293Z,1005.2
2017-07-30T07:47:25.245Z,1005.26
2017-07-30T07:48:34.211Z,1005.18
2017-07-30T07:49:43.405Z,1005.18
2017-07-30T07:50:52.361Z,1005.18
2017-07-30T07:52:01.347Z,1005.17
2017-07-30T07:53:10.640Z,1005.16
2017-07-30T07:54:19.624Z,1005.14
2017-07-30T07:55:28.590Z,1005.13
2017-07-30T07:56:37.586Z,1005.16
2017-07-30T07:57:49.355Z,1005.13
2017-07-30T07:59:11.574Z,1005.14
2017-07-30T08:00:26.334Z,1005.15
2017-07-30T08:01:35.298Z,1005.15
2017-07-30T08:02:44.253Z,1005.15
2017-07-30T08:03:53.209Z,1005.19
2017-07-30T08:05:02.172Z,1005.27
2017-07-30T08:06:11.141Z,1005.21
2017-07-30T08:07:20.441Z,1005.25
2017-07-30T08:08:29.406Z,1005.23
2017-07-30T08:09:38.368Z,1005.28
2017-07-30T08:10:47.651Z,1005.24
2017-07-30T08:11:56.942Z,1005.22
2017-07-30T08:13:05.906Z,1005.2
2017-07-30T08:14:14.862Z,1005.17
2017-07-30T08:15:23.873Z,1005.22
2017-07-30T08:16:32.858Z,1005.21
2017-07-30T08:17:41.812Z,1005.17
2017-07-30T08:18:50.776Z,1005.18
2017-07-30T08:19:59.736Z,1005.19
2017-07-30T08:21:08.781Z,1005.2
2017-07-30T08:22:17.940Z,1005.24
2017-07-30T08:23:27.039Z,1005.26
2017-07-30T08:24:35.997Z,1005.33
2017-07-30T08:25:44.969Z,1005.28
2017-07-30T08:26:53.957Z,1005.23
2017-07-30T08:28:02.940Z,1005.21
2017-07-30T08:29:11.929Z,1005.18
2017-07-30T08:30:20.910Z,1005.16
2017-07-30T08:31:29.887Z,1005.17
2017-07-30T08:32:38.875Z,1005.17
2017-07-30T08:33:47.872Z,1005.18
2017-07-30T08:34:56.854Z,1005.19
2017-07-30T08:36:05.837Z,1005.16
2017-07-30T08:37:14.824Z,1005.18
2017-07-30T08:38:23.810Z,1005.16
2017-07-30T08:39:32.793Z,1005.14
2017-07-30T08:40:42.106Z,1005.13
2017-07-30T08:41:51.100Z,1005.14
2017-07-30T08:43:00.069Z,1005.16
2017-07-30T08:44:09.061Z,1005.17
2017-07-30T08:45:18.039Z,1005.17
2017-07-30T08:46:27.064Z,1005.17
2017-07-30T08:47:36.054Z,1005.15
2017-07-30T08:48:45.041Z,1005.11
2017-07-30T08:49:54.019Z,1005.16
2017-07-30T08:51:02.995Z,1005.17
2017-07-30T08:52:11.980Z,1005.12
2017-07-30T08:53:20.977Z,1005.21
2017-07-30T08:54:29.957Z,1005.18
2017-07-30T08:55:38.943Z,1005.08
2017-07-30T08:56:47.935Z,1005.06
2017-07-30T08:57:56.952Z,1005.05
2017-07-30T08:59:05.932Z,1005.04
2017-07-30T09:00:14.933Z,1004.92
2017-07-30T09:01:23.909Z,1004.96
2017-07-30T09:02:32.894Z,1004.93
2017-07-30T09:03:41.891Z,1004.92
2017-07-30T09:04:50.885Z,1004.93
2017-07-30T09:05:59.865Z,1004.88
2017-07-30T09:07:08.856Z,1004.9
2017-07-30T09:08:17.842Z,1004.86
2017-07-30T09:09:26.846Z,1004.86
2017-07-30T09:10:35.825Z,1004.84
2017-07-30T09:11:44.805Z,1004.87
2017-07-30T09:12:53.784Z,1004.88
2017-07-30T09:14:02.770Z,1004.81
2017-07-30T09:15:11.768Z,1004.87
2017-07-30T09:16:20.753Z,1004.86
2017-07-30T09:17:29.747Z,1004.8
2017-07-30T09:18:39.383Z,1004.77
2017-07-30T09:19:48.374Z,1004.76
2017-07-30T09:20:57.364Z,1004.78
2017-07-30T09:22:06.346Z,1004.69
2017-07-30T09:23:15.333Z,1004.72
2017-07-30T09:24:24.328Z,1004.75
2017-07-30T09:25:33.637Z,1004.71
2017-07-30T09:26:42.625Z,1004.67
2017-07-30T09:27:51.613Z,1004.68
2017-07-30T09:29:00.596Z,1004.66
2017-07-30T09:30:09.581Z,1004.67
2017-07-30T09:31:18.897Z,1004.58
2017-07-30T09:32:27.880Z,1004.58
2017-07-30T09:33:36.859Z,1004.59
2017-07-30T09:34:45.848Z,1004.58
2017-07-30T09:35:54.825Z,1004.53
2017-07-30T09:37:03.811Z,1004.5
2017-07-30T09:38:12.790Z,1004.48
2017-07-30T09:39:21.775Z,1004.46
2017-07-30T09:40:30.753Z,1004.46
2017-07-30T09:41:39.745Z,1004.47
2017-07-30T09:42:48.734Z,1004.45
2017-07-30T09:43:57.716Z,1004.5
2017-07-30T09:45:06.703Z,1004.45
2017-07-30T09:46:15.683Z,1004.44
2017-07-30T09:47:24.678Z,1004.49
2017-07-30T09:48:33.657Z,1004.42
2017-07-30T09:49:42.614Z,1004.43
2017-07-30T09:50:51.568Z,1004.43
2017-07-30T09:52:00.525Z,1004.44
2017-07-30T09:53:09.485Z,1004.45
2017-07-30T09:54:18.448Z,1004.39
2017-07-30T09:55:27.423Z,1004.45
2017-07-30T09:56:36.721Z,1004.37
2017-07-30T09:57:45.679Z,1004.31
2017-07-30T09:58:54.648Z,1004.3
2017-07-30T10:00:03.609Z,1004.31
2017-07-30T10:01:12.590Z,1004.35
2017-07-30T10:02:21.880Z,1004.33
2017-07-30T10:03:30.866Z,1004.29
2017-07-30T10:04:39.821Z,1004.28
2017-07-30T10:05:48.788Z,1004.27
2017-07-30T10:06:57.756Z,1004.22
2017-07-30T10:08:06.716Z,1004.18
2017-07-30T10:09:15.680Z,1004.14
2017-07-30T10:10:24.641Z,1004.09
2017-07-30T10:11:33.608Z,1004.06
2017-07-30T10:12:42.560Z,1004.03
2017-07-30T10:13:51.529Z,1003.97
2017-07-30T10:15:00.490Z,1003.92
2017-07-30T10:16:09.779Z,1003.98
2017-07-30T10:17:18.738Z,1003.95
2017-07-30T10:18:27.704Z,1003.95
2017-07-30T10:19:36.992Z,1003.92
2017-07-30T10:20:46.277Z,1003.93
2017-07-30T10:21:55.236Z,1003.92
2017-07-30T10:23:04.201Z,1003.93
2017-07-30T10:24:13.221Z,1003.87
2017-07-30T10:25:22.184Z,1003.94
2017-07-30T10:26:31.144Z,1003.93
2017-07-30T10:27:40.097Z,1003.88
2017-07-30T10:28:49.067Z,1003.93
2017-07-30T10:29:58.863Z,1003.92
2017-07-30T10:31:08.024Z,1003.91
2017-07-30T10:32:16.988Z,1003.86
2017-07-30T10:33:26.074Z,1003.91
2017-07-30T10:34:35.182Z,1003.9
2017-07-30T10:35:44.146Z,1003.91
2017-07-30T10:36:53.109Z,1003.93
2017-07-30T10:38:02.406Z,1003.92
2017-07-30T10:39:11.374Z,1003.9
2017-07-30T10:40:20.524Z,1003.89
2017-07-30T10:41:29.497Z,1004.01
2017-07-30T10:42:38.811Z,1003.82
2017-07-30T10:43:47.927Z,1003.87
2017-07-30T10:44:56.957Z,1003.84
2017-07-30T10:46:06.016Z,1003.85
2017-07-30T10:47:15.218Z,1003.9
2017-07-30T10:48:24.182Z,1003.87
2017-07-30T10:49:33.270Z,1003.93
2017-07-30T10:50:42.236Z,1003.92
2017-07-30T10:51:51.273Z,1003.91
2017-07-30T10:53:00.782Z,1003.88
2017-07-30T10:54:09.927Z,1003.83
2017-07-30T10:55:19.230Z,1003.93
2017-07-30T10:56:28.470Z,1003.87
2017-07-30T10:57:37.520Z,1003.83
2017-07-30T10:58:46.814Z,1003.85
2017-07-30T10:59:56.000Z,1003.86
2017-07-30T11:01:05.450Z,1003.85
2017-07-30T11:02:14.938Z,1003.87
2017-07-30T11:03:24.124Z,1003.82
2017-07-30T11:04:33.218Z,1003.82
2017-07-30T11:05:42.552Z,1003.75
2017-07-30T11:06:51.789Z,1003.78
2017-07-30T11:08:00.747Z,1003.78
2017-07-30T11:09:09.708Z,1003.72
2017-07-30T11:10:18.939Z,1003.78
2017-07-30T11:11:27.939Z,1003.68
2017-07-30T11:12:37.023Z,1003.67
2017-07-30T11:13:46.116Z,1003.69
2017-07-30T11:14:55.192Z,1003.68
2017-07-30T11:16:04.337Z,1003.75
2017-07-30T11:17:13.430Z,1003.7
2017-07-30T11:18:22.449Z,1003.68
2017-07-30T11:19:31.584Z,1003.69
2017-07-30T11:20:40.704Z,1003.7
2017-07-30T11:21:50.008Z,1003.75
2017-07-30T11:22:59.116Z,1003.66
2017-07-30T11:24:08.080Z,1003.66
2017-07-30T11:25:17.355Z,1003.63
2017-07-30T11:26:26.329Z,1003.63
2017-07-30T11:27:35.480Z,1003.63
2017-07-30T11:28:44.524Z,1003.62
2017-07-30T11:29:53.489Z,1003.52
2017-07-30T11:31:02.784Z,1003.51
2017-07-30T11:32:11.749Z,1003.5
2017-07-30T11:33:20.711Z,1003.55
2017-07-30T11:34:29.672Z,1003.6
2017-07-30T11:35:38.637Z,1003.57
2017-07-30T11:36:47.656Z,1003.58
2017-07-30T11:37:56.754Z,1003.6
2017-07-30T11:39:05.732Z,1003.56
2017-07-30T11:40:14.924Z,1003.52
2017-07-30T11:41:23.878Z,1003.56
2017-07-30T11:42:32.838Z,1003.52
2017-07-30T11:43:41.800Z,1003.52
2017-07-30T11:44:50.755Z,1003.46
2017-07-30T11:45:59.717Z,1003.46
2017-07-30T11:47:08.682Z,1003.42
2017-07-30T11:48:17.667Z,1003.45
2017-07-30T11:49:26.636Z,1003.43
2017-07-30T11:50:35.604Z,1003.41
2017-07-30T11:51:44.567Z,1003.4
2017-07-30T11:52:53.531Z,1003.33
2017-07-30T11:54:02.493Z,1003.39
2017-07-30T11:55:11.449Z,1003.33
2017-07-30T11:56:20.407Z,1003.33
2017-07-30T11:57:29.371Z,1003.31
2017-07-30T11:58:38.330Z,1003.35
2017-07-30T11:59:47.575Z,1003.42
2017-07-30T12:00:56.551Z,1003.37
2017-07-30T12:02:05.518Z,1003.36
2017-07-30T12:03:14.485Z,1003.36
2017-07-30T12:04:23.452Z,1003.33
2017-07-30T12:05:32.412Z,1003.35
2017-07-30T12:06:41.392Z,1003.4
2017-07-30T12:07:50.356Z,1003.48
2017-07-30T12:08:59.339Z,1003.45
2017-07-30T12:10:08.326Z,1003.39
2017-07-30T12:11:17.304Z,1003.33
2017-07-30T12:12:26.290Z,1003.51
2017-07-30T12:13:35.279Z,1003.35
2017-07-30T12:14:44.258Z,1003.4
2017-07-30T12:15:53.254Z,1003.51
2017-07-30T12:17:02.236Z,1003.51
2017-07-30T12:18:11.218Z,1003.5
2017-07-30T12:19:20.200Z,1003.53
2017-07-30T12:20:29.205Z,1003.49
2017-07-30T12:21:38.201Z,1003.5
2017-07-30T12:22:47.182Z,1003.42
2017-07-30T12:23:56.263Z,1003.44
2017-07-30T12:25:05.257Z,1003.45
2017-07-30T12:26:14.239Z,1003.43
2017-07-30T12:27:23.217Z,1003.37
2017-07-30T12:28:32.209Z,1003.33
2017-07-30T12:29:41.204Z,1003.39
2017-07-30T12:30:50.214Z,1003.38
2017-07-30T12:31:59.200Z,1003.37
2017-07-30T12:33:08.199Z,1003.35
2017-07-30T12:34:17.183Z,1003.41
2017-07-30T12:35:26.167Z,1003.45
2017-07-30T12:36:35.163Z,1003.4
2017-07-30T12:37:44.153Z,1003.41
2017-07-30T12:38:53.140Z,1003.36
2017-07-30T12:40:02.120Z,1003.39
2017-07-30T12:41:11.081Z,1003.34
2017-07-30T12:42:20.044Z,1003.34
2017-07-30T12:43:29.004Z,1003.36
2017-07-30T12:44:37.977Z,1003.32
2017-07-30T12:45:46.966Z,1003.38
2017-07-30T12:46:55.932Z,1003.34
2017-07-30T12:48:04.908Z,1003.38
2017-07-30T12:49:14.199Z,1003.33
2017-07-30T12:50:23.172Z,1003.38
2017-07-30T12:51:32.132Z,1003.34
2017-07-30T12:52:41.085Z,1003.35
2017-07-30T12:53:50.057Z,1003.38
2017-07-30T12:54:59.011Z,1003.34
2017-07-30T12:56:07.977Z,1003.4
2017-07-30T12:57:16.939Z,1003.33
2017-07-30T12:58:25.905Z,1003.32
2017-07-30T12:59:35.194Z,1003.38
2017-07-30T13:00:44.153Z,1003.32
2017-07-30T13:01:53.117Z,1003.29
2017-07-30T13:03:02.413Z,1003.22
2017-07-30T13:04:11.376Z,1003.38
2017-07-30T13:05:20.344Z,1003.38
2017-07-30T13:06:29.310Z,1003.28
2017-07-30T13:07:38.277Z,1003.34
2017-07-30T13:08:47.249Z,1003.29
2017-07-30T13:09:56.234Z,1003.32
2017-07-30T13:11:05.217Z,1003.35
2017-07-30T13:12:14.207Z,1003.39
2017-07-30T13:13:23.524Z,1003.25
2017-07-30T13:14:32.516Z,1003.31
2017-07-30T13:15:41.506Z,1003.34
2017-07-30T13:16:50.491Z,1003.31
2017-07-30T13:17:59.472Z,1003.28
2017-07-30T13:19:08.462Z,1003.35
2017-07-30T13:20:17.435Z,1003.33
2017-07-30T13:21:26.419Z,1003.32
2017-07-30T13:22:35.405Z,1003.34
2017-07-30T13:23:44.399Z,1003.27
2017-07-30T13:24:53.379Z,1003.27
2017-07-30T13:26:02.365Z,1003.3
2017-07-30T13:27:11.353Z,1003.25
2017-07-30T13:28:20.346Z,1003.28
2017-07-30T13:29:29.345Z,1003.32
2017-07-30T13:30:38.347Z,1003.33
2017-07-30T13:31:47.344Z,1003.33
2017-07-30T13:32:56.338Z,1003.3
2017-07-30T13:34:05.327Z,1003.3
2017-07-30T13:35:14.622Z,1003.33
2017-07-30T13:36:23.611Z,1003.29
2017-07-30T13:37:32.607Z,1003.26
2017-07-30T13:38:41.599Z,1003.23
2017-07-30T13:39:50.593Z,1003.21
2017-07-30T13:40:59.585Z,1003.16
2017-07-30T13:42:08.569Z,1003.15
2017-07-30T13:43:17.559Z,1003.15
2017-07-30T13:44:26.556Z,1003.08
2017-07-30T13:45:35.537Z,1003.12
2017-07-30T13:46:44.521Z,1003.15
2017-07-30T13:47:53.522Z,1003.07
2017-07-30T13:49:02.509Z,1003.24
2017-07-30T13:50:11.497Z,1003.15
2017-07-30T13:51:20.481Z,1003.14
2017-07-30T13:52:29.471Z,1003.12
2017-07-30T13:53:38.448Z,1003.07
2017-07-30T13:54:47.438Z,1003.06
2017-07-30T13:55:56.438Z,1003.14
2017-07-30T13:57:05.420Z,1003.08